sensor_id;sensor_type;location;lat;lon;timestamp;pressure;altitude;pressure_sealevel;temperature;humidity
43119;BME280;28729;49.838;8.650;2023-07-13T00:01:58;99703.72;;;19.86;56.86
43119;BME280;28729;49.838;8.650;2023-07-13T00:06:00;99703.53;;;19.82;56.98
43119;BME280;28729;49.838;8.650;2023-07-13T00:10:03;99704.03;;;19.84;57.92
43119;BME280;28729;49.838;8.650;2023-07-13T00:14:05;99708.50;;;19.85;57.60
43119;BME280;28729;49.838;8.650;2023-07-13T00:18:07;99705.50;;;19.82;57.38
43119;BME280;28729;49.838;8.650;2023-07-13T00:22:09;99705.28;;;19.78;57.73
43119;BME280;28729;49.838;8.650;2023-07-13T00:26:11;99706.22;;;19.73;57.78
43119;BME280;28729;49.838;8.650;2023-07-13T00:30:14;99706.53;;;19.72;57.86
43119;BME280;28729;49.838;8.650;2023-07-13T00:34:16;99708.31;;;19.68;58.05
43119;BME280;28729;49.838;8.650;2023-07-13T00:38:18;99715.22;;;19.56;58.00
43119;BME280;28729;49.838;8.650;2023-07-13T00:42:22;99707.16;;;19.41;59.77
43119;BME280;28729;49.838;8.650;2023-07-13T00:46:28;99713.59;;;19.28;59.79
43119;BME280;28729;49.838;8.650;2023-07-13T00:50:30;99712.56;;;19.10;59.68
43119;BME280;28729;49.838;8.650;2023-07-13T00:54:39;99718.72;;;18.93;60.25
43119;BME280;28729;49.838;8.650;2023-07-13T00:58:42;99710.63;;;18.78;60.95
43119;BME280;28729;49.838;8.650;2023-07-13T01:02:45;99709.13;;;18.66;63.18
43119;BME280;28729;49.838;8.650;2023-07-13T01:06:48;99714.44;;;18.49;63.17
43119;BME280;28729;49.838;8.650;2023-07-13T01:10:51;99714.09;;;18.37;63.61
43119;BME280;28729;49.838;8.650;2023-07-13T01:15:00;99719.31;;;18.25;64.58
43119;BME280;28729;49.838;8.650;2023-07-13T01:19:11;99715.94;;;18.09;65.64
43119;BME280;28729;49.838;8.650;2023-07-13T01:23:15;99720.84;;;17.98;66.15
43119;BME280;28729;49.838;8.650;2023-07-13T01:27:21;99713.13;;;17.90;67.00
43119;BME280;28729;49.838;8.650;2023-07-13T01:31:23;99706.91;;;17.79;67.48
43119;BME280;28729;49.838;8.650;2023-07-13T01:35:25;99707.00;;;17.69;68.39
43119;BME280;28729;49.838;8.650;2023-07-13T01:39:28;99717.09;;;17.65;68.59
43119;BME280;28729;49.838;8.650;2023-07-13T01:43:30;99721.34;;;17.57;69.80
43119;BME280;28729;49.838;8.650;2023-07-13T01:47:33;99723.97;;;17.48;70.83
43119;BME280;28729;49.838;8.650;2023-07-13T01:51:35;99724.94;;;17.39;71.13
43119;BME280;28729;49.838;8.650;2023-07-13T01:55:38;99721.97;;;17.30;71.70
43119;BME280;28729;49.838;8.650;2023-07-13T01:59:40;99739.91;;;17.19;72.18
43119;BME280;28729;49.838;8.650;2023-07-13T02:03:42;99740.00;;;17.14;72.77
43119;BME280;28729;49.838;8.650;2023-07-13T02:07:43;99737.25;;;17.08;74.12
43119;BME280;28729;49.838;8.650;2023-07-13T02:11:45;99742.59;;;17.05;74.08
43119;BME280;28729;49.838;8.650;2023-07-13T02:15:50;99743.78;;;16.99;74.63
43119;BME280;28729;49.838;8.650;2023-07-13T02:19:52;99747.19;;;16.91;74.92
43119;BME280;28729;49.838;8.650;2023-07-13T02:23:54;99759.38;;;16.95;75.10
43119;BME280;28729;49.838;8.650;2023-07-13T02:27:56;99754.56;;;17.05;75.19
43119;BME280;28729;49.838;8.650;2023-07-13T02:31:58;99767.84;;;17.14;74.85
43119;BME280;28729;49.838;8.650;2023-07-13T02:36:00;99770.81;;;17.22;74.93
43119;BME280;28729;49.838;8.650;2023-07-13T02:40:02;99761.72;;;17.36;74.81
43119;BME280;28729;49.838;8.650;2023-07-13T02:44:12;99766.06;;;17.47;74.43
43119;BME280;28729;49.838;8.650;2023-07-13T02:48:14;99762.63;;;17.55;73.89
43119;BME280;28729;49.838;8.650;2023-07-13T02:52:16;99768.13;;;17.60;73.76
43119;BME280;28729;49.838;8.650;2023-07-13T02:56:23;99768.66;;;17.62;73.71
43119;BME280;28729;49.838;8.650;2023-07-13T03:00:25;99767.06;;;17.56;74.26
43119;BME280;28729;49.838;8.650;2023-07-13T03:04:27;99775.03;;;17.44;74.61
43119;BME280;28729;49.838;8.650;2023-07-13T03:08:29;99768.78;;;17.28;75.55
43119;BME280;28729;49.838;8.650;2023-07-13T03:12:31;99763.09;;;17.14;76.15
43119;BME280;28729;49.838;8.650;2023-07-13T03:16:40;99764.91;;;17.00;76.90
43119;BME280;28729;49.838;8.650;2023-07-13T03:20:41;99767.84;;;16.84;77.60
43119;BME280;28729;49.838;8.650;2023-07-13T03:24:44;99772.69;;;16.69;78.73
43119;BME280;28729;49.838;8.650;2023-07-13T03:28:46;99769.16;;;16.58;79.11
43119;BME280;28729;49.838;8.650;2023-07-13T03:32:52;99775.63;;;16.48;80.35
43119;BME280;28729;49.838;8.650;2023-07-13T03:36:54;99778.47;;;16.38;80.69
43119;BME280;28729;49.838;8.650;2023-07-13T03:40:56;99782.72;;;16.30;81.34
43119;BME280;28729;49.838;8.650;2023-07-13T03:44:58;99787.75;;;16.23;82.42
43119;BME280;28729;49.838;8.650;2023-07-13T03:49:01;99780.56;;;16.17;83.54
43119;BME280;28729;49.838;8.650;2023-07-13T03:53:02;99778.34;;;16.14;84.01
43119;BME280;28729;49.838;8.650;2023-07-13T03:57:05;99783.09;;;16.13;85.00
43119;BME280;28729;49.838;8.650;2023-07-13T04:01:10;99787.28;;;16.11;84.61
43119;BME280;28729;49.838;8.650;2023-07-13T04:05:13;99785.88;;;16.08;85.04
43119;BME280;28729;49.838;8.650;2023-07-13T04:09:15;99786.47;;;16.05;85.48
43119;BME280;28729;49.838;8.650;2023-07-13T04:13:17;99788.97;;;16.07;85.57
43119;BME280;28729;49.838;8.650;2023-07-13T04:17:18;99783.41;;;16.07;86.29
43119;BME280;28729;49.838;8.650;2023-07-13T04:21:20;99797.59;;;16.05;85.85
43119;BME280;28729;49.838;8.650;2023-07-13T04:25:22;99793.41;;;16.03;86.03
43119;BME280;28729;49.838;8.650;2023-07-13T04:29:24;99792.91;;;16.01;86.55
43119;BME280;28729;49.838;8.650;2023-07-13T04:33:26;99803.16;;;16.00;87.40
43119;BME280;28729;49.838;8.650;2023-07-13T04:37:28;99809.59;;;15.95;88.07
43119;BME280;28729;49.838;8.650;2023-07-13T04:41:31;99824.88;;;15.93;87.45
43119;BME280;28729;49.838;8.650;2023-07-13T04:45:34;99817.94;;;15.95;88.84
43119;BME280;28729;49.838;8.650;2023-07-13T04:49:37;99826.53;;;15.99;88.72
43119;BME280;28729;49.838;8.650;2023-07-13T04:53:39;99831.50;;;16.02;88.19
43119;BME280;28729;49.838;8.650;2023-07-13T04:57:41;99834.28;;;16.07;88.00
43119;BME280;28729;49.838;8.650;2023-07-13T05:01:42;99830.63;;;16.12;87.30
43119;BME280;28729;49.838;8.650;2023-07-13T05:05:57;99826.66;;;16.23;88.00
43119;BME280;28729;49.838;8.650;2023-07-13T05:09:59;99837.78;;;16.28;87.54
43119;BME280;28729;49.838;8.650;2023-07-13T05:14:01;99830.22;;;16.34;87.78
43119;BME280;28729;49.838;8.650;2023-07-13T05:18:03;99834.63;;;16.40;87.60
43119;BME280;28729;49.838;8.650;2023-07-13T05:22:05;99840.69;;;16.47;86.87
43119;BME280;28729;49.838;8.650;2023-07-13T05:26:07;99832.34;;;16.52;86.55
43119;BME280;28729;49.838;8.650;2023-07-13T05:30:10;99838.69;;;16.58;85.06
43119;BME280;28729;49.838;8.650;2023-07-13T05:34:15;99842.25;;;16.69;84.36
43119;BME280;28729;49.838;8.650;2023-07-13T05:38:19;99841.88;;;16.80;84.45
43119;BME280;28729;49.838;8.650;2023-07-13T05:42:21;99841.00;;;16.90;84.18
43119;BME280;28729;49.838;8.650;2023-07-13T05:46:25;99841.72;;;17.01;83.69
43119;BME280;28729;49.838;8.650;2023-07-13T05:50:27;99848.03;;;17.12;81.36
43119;BME280;28729;49.838;8.650;2023-07-13T05:54:29;99850.44;;;17.23;82.08
43119;BME280;28729;49.838;8.650;2023-07-13T05:58:33;99858.16;;;17.31;82.54
43119;BME280;28729;49.838;8.650;2023-07-13T06:02:35;99843.88;;;17.38;80.47
43119;BME280;28729;49.838;8.650;2023-07-13T06:06:37;99846.81;;;17.52;79.70
43119;BME280;28729;49.838;8.650;2023-07-13T06:10:40;99855.81;;;17.68;79.42
43119;BME280;28729;49.838;8.650;2023-07-13T06:14:42;99860.69;;;17.81;77.63
43119;BME280;28729;49.838;8.650;2023-07-13T06:18:44;99873.13;;;17.94;75.20
43119;BME280;28729;49.838;8.650;2023-07-13T06:22:47;99875.09;;;18.12;74.31
43119;BME280;28729;49.838;8.650;2023-07-13T06:26:50;99866.75;;;18.31;71.96
43119;BME280;28729;49.838;8.650;2023-07-13T06:30:52;99880.81;;;18.45;68.99
43119;BME280;28729;49.838;8.650;2023-07-13T06:34:54;99877.78;;;18.60;66.29
43119;BME280;28729;49.838;8.650;2023-07-13T06:38:57;99889.66;;;18.71;66.35
43119;BME280;28729;49.838;8.650;2023-07-13T06:43:00;99886.03;;;18.89;66.64
43119;BME280;28729;49.838;8.650;2023-07-13T06:47:02;99894.59;;;19.12;65.51
43119;BME280;28729;49.838;8.650;2023-07-13T06:51:05;99897.97;;;19.28;64.57
43119;BME280;28729;49.838;8.650;2023-07-13T06:55:08;99895.41;;;19.45;63.78
43119;BME280;28729;49.838;8.650;2023-07-13T06:59:10;99889.03;;;19.58;62.35
43119;BME280;28729;49.838;8.650;2023-07-13T07:03:16;99896.00;;;19.75;61.33
43119;BME280;28729;49.838;8.650;2023-07-13T07:07:19;99890.47;;;20.02;61.32
43119;BME280;28729;49.838;8.650;2023-07-13T07:11:25;99894.88;;;20.31;60.47
43119;BME280;28729;49.838;8.650;2023-07-13T07:15:27;99900.34;;;20.50;59.60
43119;BME280;28729;49.838;8.650;2023-07-13T07:19:30;99906.84;;;20.73;58.50
43119;BME280;28729;49.838;8.650;2023-07-13T07:23:35;99906.00;;;20.86;56.96
43119;BME280;28729;49.838;8.650;2023-07-13T07:27:38;99904.09;;;20.96;55.89
43119;BME280;28729;49.838;8.650;2023-07-13T07:31:43;99908.88;;;21.17;54.65
43119;BME280;28729;49.838;8.650;2023-07-13T07:35:48;99909.22;;;21.38;53.68
43119;BME280;28729;49.838;8.650;2023-07-13T07:39:54;99911.41;;;21.73;52.89
43119;BME280;28729;49.838;8.650;2023-07-13T07:43:59;99914.19;;;22.04;51.97
43119;BME280;28729;49.838;8.650;2023-07-13T07:48:04;99913.38;;;22.43;50.16
43119;BME280;28729;49.838;8.650;2023-07-13T07:52:08;99921.50;;;22.80;48.97
43119;BME280;28729;49.838;8.650;2023-07-13T07:56:10;99910.63;;;23.39;47.25
43119;BME280;28729;49.838;8.650;2023-07-13T08:00:15;99905.09;;;23.69;46.52
43119;BME280;28729;49.838;8.650;2023-07-13T08:04:21;99904.94;;;23.74;46.70
43119;BME280;28729;49.838;8.650;2023-07-13T08:08:26;99904.28;;;23.59;44.86
43119;BME280;28729;49.838;8.650;2023-07-13T08:12:28;99906.78;;;23.52;45.68
43119;BME280;28729;49.838;8.650;2023-07-13T08:16:34;99897.38;;;23.48;45.53
43119;BME280;28729;49.838;8.650;2023-07-13T08:20:38;99910.91;;;23.46;45.69
43119;BME280;28729;49.838;8.650;2023-07-13T08:24:40;99908.25;;;23.58;44.26
43119;BME280;28729;49.838;8.650;2023-07-13T08:28:45;99913.19;;;23.79;44.99
43119;BME280;28729;49.838;8.650;2023-07-13T08:32:48;99910.94;;;23.37;43.82
43119;BME280;28729;49.838;8.650;2023-07-13T08:36:51;99913.44;;;23.39;44.46
43119;BME280;28729;49.838;8.650;2023-07-13T08:40:55;99902.97;;;23.57;44.02
43119;BME280;28729;49.838;8.650;2023-07-13T08:49:18;99902.28;;;24.16;41.61
43119;BME280;28729;49.838;8.650;2023-07-13T08:53:32;99894.94;;;24.23;42.09
43119;BME280;28729;49.838;8.650;2023-07-13T08:57:39;99892.38;;;24.69;41.86
43119;BME280;28729;49.838;8.650;2023-07-13T09:06:39;99890.41;;;24.90;40.43
43119;BME280;28729;49.838;8.650;2023-07-13T09:10:45;99887.44;;;25.08;40.51
43119;BME280;28729;49.838;8.650;2023-07-13T09:14:51;99898.84;;;25.11;40.56
43119;BME280;28729;49.838;8.650;2023-07-13T09:18:59;99888.13;;;25.05;39.48
43119;BME280;28729;49.838;8.650;2023-07-13T09:23:07;99889.91;;;24.67;40.61
43119;BME280;28729;49.838;8.650;2023-07-13T09:27:22;99887.41;;;24.66;40.78
43119;BME280;28729;49.838;8.650;2023-07-13T09:31:32;99883.38;;;24.75;40.06
43119;BME280;28729;49.838;8.650;2023-07-13T09:35:38;99884.59;;;24.66;40.21
43119;BME280;28729;49.838;8.650;2023-07-13T09:39:40;99891.00;;;24.54;38.98
43119;BME280;28729;49.838;8.650;2023-07-13T09:48:12;99894.84;;;25.33;39.05
43119;BME280;28729;49.838;8.650;2023-07-13T09:52:15;99883.38;;;25.51;38.21
43119;BME280;28729;49.838;8.650;2023-07-13T09:56:26;99897.88;;;25.61;36.21
43119;BME280;28729;49.838;8.650;2023-07-13T10:00:29;99898.91;;;25.57;35.94
43119;BME280;28729;49.838;8.650;2023-07-13T10:04:34;99883.16;;;25.56;35.81
43119;BME280;28729;49.838;8.650;2023-07-13T10:08:39;99899.03;;;25.60;34.64
43119;BME280;28729;49.838;8.650;2023-07-13T10:12:40;99899.75;;;25.69;35.39
43119;BME280;28729;49.838;8.650;2023-07-13T10:16:46;99897.84;;;25.82;34.80
43119;BME280;28729;49.838;8.650;2023-07-13T10:20:49;99906.00;;;26.33;33.85
43119;BME280;28729;49.838;8.650;2023-07-13T10:24:56;99893.25;;;26.14;33.85
43119;BME280;28729;49.838;8.650;2023-07-13T10:29:02;99886.44;;;26.03;34.63
43119;BME280;28729;49.838;8.650;2023-07-13T10:33:10;99895.63;;;26.00;34.40
43119;BME280;28729;49.838;8.650;2023-07-13T10:37:23;99882.56;;;25.96;35.16
43119;BME280;28729;49.838;8.650;2023-07-13T10:41:27;99893.63;;;26.13;34.87
43119;BME280;28729;49.838;8.650;2023-07-13T10:45:34;99887.03;;;26.21;34.88
43119;BME280;28729;49.838;8.650;2023-07-13T10:49:38;99884.34;;;26.25;34.67
43119;BME280;28729;49.838;8.650;2023-07-13T10:53:43;99887.94;;;26.62;33.83
43119;BME280;28729;49.838;8.650;2023-07-13T10:57:45;99890.16;;;27.21;33.53
43119;BME280;28729;49.838;8.650;2023-07-13T11:11:04;99885.16;;;26.50;33.40
43119;BME280;28729;49.838;8.650;2023-07-13T11:31:34;99869.38;;;26.36;33.99
43119;BME280;28729;49.838;8.650;2023-07-13T11:35:43;99879.75;;;26.57;33.54
43119;BME280;28729;49.838;8.650;2023-07-13T11:39:46;99870.78;;;26.30;33.78
43119;BME280;28729;49.838;8.650;2023-07-13T11:43:55;99877.03;;;26.24;34.48
43119;BME280;28729;49.838;8.650;2023-07-13T11:48:04;99866.31;;;26.29;33.76
43119;BME280;28729;49.838;8.650;2023-07-13T11:52:13;99867.38;;;26.49;32.94
43119;BME280;28729;49.838;8.650;2023-07-13T11:56:17;99859.97;;;26.57;33.12
43119;BME280;28729;49.838;8.650;2023-07-13T12:00:23;99866.03;;;27.12;32.02
43119;BME280;28729;49.838;8.650;2023-07-13T12:04:31;99869.13;;;27.35;31.67
43119;BME280;28729;49.838;8.650;2023-07-13T12:08:40;99872.66;;;26.63;32.16
43119;BME280;28729;49.838;8.650;2023-07-13T12:12:48;99871.25;;;26.20;32.86
43119;BME280;28729;49.838;8.650;2023-07-13T12:16:51;99872.22;;;26.12;32.64
43119;BME280;28729;49.838;8.650;2023-07-13T12:20:56;99864.75;;;26.69;32.22
43119;BME280;28729;49.838;8.650;2023-07-13T12:24:59;99864.44;;;27.70;30.67
43119;BME280;28729;49.838;8.650;2023-07-13T12:29:05;99868.78;;;28.63;29.46
43119;BME280;28729;49.838;8.650;2023-07-13T12:33:11;99861.13;;;28.83;28.96
43119;BME280;28729;49.838;8.650;2023-07-13T12:37:14;99870.63;;;29.29;29.02
43119;BME280;28729;49.838;8.650;2023-07-13T12:41:16;99864.75;;;29.19;27.94
43119;BME280;28729;49.838;8.650;2023-07-13T12:45:21;99872.03;;;28.81;29.06
43119;BME280;28729;49.838;8.650;2023-07-13T12:49:27;99878.81;;;28.41;29.27
43119;BME280;28729;49.838;8.650;2023-07-13T12:53:40;99872.38;;;27.65;29.73
43119;BME280;28729;49.838;8.650;2023-07-13T12:57:53;99894.31;;;27.12;30.85
43119;BME280;28729;49.838;8.650;2023-07-13T13:01:55;99887.25;;;26.77;31.72
43119;BME280;28729;49.838;8.650;2023-07-13T13:06:03;99889.88;;;26.98;31.30
43119;BME280;28729;49.838;8.650;2023-07-13T13:10:13;99899.06;;;27.36;31.24
43119;BME280;28729;49.838;8.650;2023-07-13T13:14:15;99890.31;;;27.41;31.02
43119;BME280;28729;49.838;8.650;2023-07-13T13:18:19;99896.47;;;27.43;31.17
43119;BME280;28729;49.838;8.650;2023-07-13T13:22:21;99898.34;;;27.39;30.58
43119;BME280;28729;49.838;8.650;2023-07-13T13:26:23;99906.94;;;27.42;31.07
43119;BME280;28729;49.838;8.650;2023-07-13T13:30:25;99905.00;;;27.75;31.26
43119;BME280;28729;49.838;8.650;2023-07-13T13:34:27;99898.75;;;27.69;30.75
43119;BME280;28729;49.838;8.650;2023-07-13T13:38:29;99894.53;;;27.47;31.28
43119;BME280;28729;49.838;8.650;2023-07-13T13:42:31;99899.22;;;27.27;31.05
43119;BME280;28729;49.838;8.650;2023-07-13T13:46:34;99911.88;;;27.45;30.99
43119;BME280;28729;49.838;8.650;2023-07-13T13:50:37;99905.66;;;27.40;30.92
43119;BME280;28729;49.838;8.650;2023-07-13T13:54:38;99910.69;;;27.18;31.50
43119;BME280;28729;49.838;8.650;2023-07-13T13:58:42;99914.47;;;27.10;31.69
43119;BME280;28729;49.838;8.650;2023-07-13T14:02:45;99905.59;;;27.24;31.57
43119;BME280;28729;49.838;8.650;2023-07-13T14:06:52;99910.31;;;27.76;30.83
43119;BME280;28729;49.838;8.650;2023-07-13T14:10:54;99912.09;;;28.12;30.02
43119;BME280;28729;49.838;8.650;2023-07-13T14:14:58;99909.06;;;28.05;30.30
43119;BME280;28729;49.838;8.650;2023-07-13T14:19:00;99905.00;;;27.75;29.98
43119;BME280;28729;49.838;8.650;2023-07-13T14:23:03;99906.59;;;27.16;30.89
43119;BME280;28729;49.838;8.650;2023-07-13T14:27:05;99909.03;;;26.65;31.01
43119;BME280;28729;49.838;8.650;2023-07-13T14:31:07;99916.47;;;26.69;31.41
43119;BME280;28729;49.838;8.650;2023-07-13T14:35:12;99922.56;;;27.24;31.37
43119;BME280;28729;49.838;8.650;2023-07-13T14:39:14;99914.25;;;27.43;30.95
43119;BME280;28729;49.838;8.650;2023-07-13T14:43:17;99916.38;;;27.62;30.91
43119;BME280;28729;49.838;8.650;2023-07-13T14:47:20;99911.44;;;27.59;30.27
43119;BME280;28729;49.838;8.650;2023-07-13T14:51:21;99910.38;;;27.64;30.81
43119;BME280;28729;49.838;8.650;2023-07-13T14:55:23;99904.16;;;27.74;31.11
43119;BME280;28729;49.838;8.650;2023-07-13T14:59:28;99898.22;;;27.63;31.22
43119;BME280;28729;49.838;8.650;2023-07-13T15:03:30;99896.44;;;27.87;31.07
43119;BME280;28729;49.838;8.650;2023-07-13T15:07:32;99902.53;;;28.68;29.51
43119;BME280;28729;49.838;8.650;2023-07-13T15:11:35;99900.53;;;28.88;28.41
43119;BME280;28729;49.838;8.650;2023-07-13T15:15:36;99896.75;;;29.39;28.04
43119;BME280;28729;49.838;8.650;2023-07-13T15:19:39;99886.03;;;29.28;28.36
43119;BME280;28729;49.838;8.650;2023-07-13T15:23:40;99894.22;;;28.59;29.05
43119;BME280;28729;49.838;8.650;2023-07-13T15:27:42;99888.81;;;27.59;29.79
43119;BME280;28729;49.838;8.650;2023-07-13T15:31:44;99903.88;;;27.07;30.75
43119;BME280;28729;49.838;8.650;2023-07-13T15:35:48;99901.25;;;26.74;31.55
43119;BME280;28729;49.838;8.650;2023-07-13T15:39:50;99897.84;;;26.80;31.06
43119;BME280;28729;49.838;8.650;2023-07-13T15:43:56;99893.38;;;26.67;31.79
43119;BME280;28729;49.838;8.650;2023-07-13T15:48:01;99902.63;;;26.80;31.67
43119;BME280;28729;49.838;8.650;2023-07-13T15:52:04;99901.13;;;26.70;31.97
43119;BME280;28729;49.838;8.650;2023-07-13T15:56:19;99903.78;;;26.51;31.85
43119;BME280;28729;49.838;8.650;2023-07-13T16:00:22;99892.69;;;26.58;31.84
43119;BME280;28729;49.838;8.650;2023-07-13T16:04:26;99891.03;;;26.45;32.47
43119;BME280;28729;49.838;8.650;2023-07-13T16:08:31;99902.66;;;26.68;32.33
43119;BME280;28729;49.838;8.650;2023-07-13T16:12:33;99895.78;;;26.93;31.66
43119;BME280;28729;49.838;8.650;2023-07-13T16:16:35;99885.13;;;26.74;31.97
43119;BME280;28729;49.838;8.650;2023-07-13T16:20:37;99888.22;;;26.57;32.26
43119;BME280;28729;49.838;8.650;2023-07-13T16:24:42;99895.97;;;26.48;32.08
43119;BME280;28729;49.838;8.650;2023-07-13T16:28:46;99883.00;;;26.59;32.11
43119;BME280;28729;49.838;8.650;2023-07-13T16:32:49;99891.97;;;26.49;31.66
43119;BME280;28729;49.838;8.650;2023-07-13T16:36:54;99891.16;;;26.24;32.11
43119;BME280;28729;49.838;8.650;2023-07-13T16:40:56;99886.09;;;26.17;32.06
43119;BME280;28729;49.838;8.650;2023-07-13T16:44:58;99887.97;;;26.25;32.26
43119;BME280;28729;49.838;8.650;2023-07-13T16:49:00;99891.16;;;26.36;32.33
43119;BME280;28729;49.838;8.650;2023-07-13T16:53:03;99897.03;;;26.31;32.09
43119;BME280;28729;49.838;8.650;2023-07-13T16:57:18;99900.91;;;26.14;32.30
43119;BME280;28729;49.838;8.650;2023-07-13T17:01:21;99894.66;;;25.96;32.21
43119;BME280;28729;49.838;8.650;2023-07-13T17:05:23;99893.63;;;25.88;32.51
43119;BME280;28729;49.838;8.650;2023-07-13T17:09:26;99889.13;;;25.87;32.43
43119;BME280;28729;49.838;8.650;2023-07-13T17:13:29;99893.19;;;25.78;32.62
43119;BME280;28729;49.838;8.650;2023-07-13T17:17:33;99889.06;;;25.75;32.79
43119;BME280;28729;49.838;8.650;2023-07-13T17:21:38;99887.53;;;25.65;33.37
43119;BME280;28729;49.838;8.650;2023-07-13T17:25:40;99895.06;;;25.61;33.34
43119;BME280;28729;49.838;8.650;2023-07-13T17:29:42;99898.22;;;25.60;33.43
43119;BME280;28729;49.838;8.650;2023-07-13T17:33:43;99892.88;;;25.46;33.38
43119;BME280;28729;49.838;8.650;2023-07-13T17:37:46;99889.25;;;25.45;33.17
43119;BME280;28729;49.838;8.650;2023-07-13T17:41:50;99898.47;;;25.34;33.14
43119;BME280;28729;49.838;8.650;2023-07-13T17:45:53;99892.91;;;25.25;33.34
43119;BME280;28729;49.838;8.650;2023-07-13T17:49:56;99898.22;;;25.27;33.62
43119;BME280;28729;49.838;8.650;2023-07-13T17:53:58;99893.41;;;25.27;33.31
43119;BME280;28729;49.838;8.650;2023-07-13T17:58:00;99889.66;;;25.23;33.68
43119;BME280;28729;49.838;8.650;2023-07-13T18:02:03;99889.16;;;25.21;33.60
43119;BME280;28729;49.838;8.650;2023-07-13T18:06:04;99887.78;;;25.06;33.62
43119;BME280;28729;49.838;8.650;2023-07-13T18:10:16;99893.06;;;25.08;33.64
43119;BME280;28729;49.838;8.650;2023-07-13T18:14:18;99902.00;;;25.10;33.79
43119;BME280;28729;49.838;8.650;2023-07-13T18:18:20;99897.53;;;25.09;33.93
43119;BME280;28729;49.838;8.650;2023-07-13T18:22:22;99895.22;;;24.90;34.26
43119;BME280;28729;49.838;8.650;2023-07-13T18:26:24;99899.03;;;24.64;34.45
43119;BME280;28729;49.838;8.650;2023-07-13T18:30:27;99912.28;;;24.34;34.09
43119;BME280;28729;49.838;8.650;2023-07-13T18:34:31;99902.97;;;24.13;34.63
43119;BME280;28729;49.838;8.650;2023-07-13T18:38:34;99907.84;;;23.95;34.96
43119;BME280;28729;49.838;8.650;2023-07-13T18:42:38;99904.41;;;23.80;35.11
43119;BME280;28729;49.838;8.650;2023-07-13T18:46:40;99908.72;;;23.69;35.16
43119;BME280;28729;49.838;8.650;2023-07-13T18:50:42;99901.16;;;23.52;35.33
43119;BME280;28729;49.838;8.650;2023-07-13T18:54:45;99909.28;;;23.36;35.53
43119;BME280;28729;49.838;8.650;2023-07-13T18:58:47;99912.94;;;23.19;35.57
43119;BME280;28729;49.838;8.650;2023-07-13T19:02:49;99918.56;;;23.02;35.96
43119;BME280;28729;49.838;8.650;2023-07-13T19:06:51;99913.41;;;22.87;36.44
43119;BME280;28729;49.838;8.650;2023-07-13T19:10:53;99916.84;;;22.66;36.88
43119;BME280;28729;49.838;8.650;2023-07-13T19:19:35;99925.78;;;22.11;38.71
43119;BME280;28729;49.838;8.650;2023-07-13T19:23:43;99929.28;;;21.85;39.78
43119;BME280;28729;49.838;8.650;2023-07-13T19:27:47;99928.81;;;21.61;40.39
43119;BME280;28729;49.838;8.650;2023-07-13T19:31:49;99934.94;;;21.41;40.80
43119;BME280;28729;49.838;8.650;2023-07-13T19:35:51;99943.84;;;21.20;41.56
43119;BME280;28729;49.838;8.650;2023-07-13T19:39:53;99946.50;;;21.03;42.45
43119;BME280;28729;49.838;8.650;2023-07-13T19:43:56;99948.53;;;20.88;43.09
43119;BME280;28729;49.838;8.650;2023-07-13T19:47:58;99953.63;;;20.73;43.50
43119;BME280;28729;49.838;8.650;2023-07-13T19:52:00;99962.91;;;20.59;43.49
43119;BME280;28729;49.838;8.650;2023-07-13T19:56:02;99960.25;;;20.49;44.18
43119;BME280;28729;49.838;8.650;2023-07-13T20:00:09;99972.50;;;20.39;44.26
43119;BME280;28729;49.838;8.650;2023-07-13T20:04:14;99982.78;;;20.30;45.42
43119;BME280;28729;49.838;8.650;2023-07-13T20:08:17;99984.63;;;20.21;46.16
43119;BME280;28729;49.838;8.650;2023-07-13T20:12:21;99991.56;;;20.10;46.79
43119;BME280;28729;49.838;8.650;2023-07-13T20:16:24;99990.09;;;19.98;46.87
43119;BME280;28729;49.838;8.650;2023-07-13T20:20:29;99992.25;;;19.88;47.56
43119;BME280;28729;49.838;8.650;2023-07-13T20:24:32;99996.16;;;19.73;48.03
43119;BME280;28729;49.838;8.650;2023-07-13T20:28:35;99999.09;;;19.63;48.58
43119;BME280;28729;49.838;8.650;2023-07-13T20:32:36;99995.88;;;19.55;49.10
43119;BME280;28729;49.838;8.650;2023-07-13T20:36:39;100000.50;;;19.46;49.52
43119;BME280;28729;49.838;8.650;2023-07-13T20:40:42;99994.44;;;19.39;49.48
43119;BME280;28729;49.838;8.650;2023-07-13T20:44:45;100005.50;;;19.30;49.74
43119;BME280;28729;49.838;8.650;2023-07-13T20:48:47;100007.84;;;19.23;50.86
43119;BME280;28729;49.838;8.650;2023-07-13T20:52:52;100011.84;;;19.17;50.89
43119;BME280;28729;49.838;8.650;2023-07-13T20:56:55;100009.94;;;19.12;51.45
43119;BME280;28729;49.838;8.650;2023-07-13T21:00:59;100014.78;;;19.07;51.35
43119;BME280;28729;49.838;8.650;2023-07-13T21:05:17;100024.06;;;19.02;51.54
43119;BME280;28729;49.838;8.650;2023-07-13T21:09:20;100018.53;;;18.97;52.00
43119;BME280;28729;49.838;8.650;2023-07-13T21:13:21;100012.19;;;18.92;52.42
43119;BME280;28729;49.838;8.650;2023-07-13T21:17:23;100015.06;;;18.86;52.83
43119;BME280;28729;49.838;8.650;2023-07-13T21:21:25;100009.28;;;18.83;53.29
43119;BME280;28729;49.838;8.650;2023-07-13T21:25:29;100009.00;;;18.79;53.77
43119;BME280;28729;49.838;8.650;2023-07-13T21:29:31;100018.31;;;18.75;53.88
43119;BME280;28729;49.838;8.650;2023-07-13T21:33:33;100020.53;;;18.73;54.22
43119;BME280;28729;49.838;8.650;2023-07-13T21:37:35;100032.28;;;18.70;54.44
43119;BME280;28729;49.838;8.650;2023-07-13T21:41:37;100034.31;;;18.64;54.44
43119;BME280;28729;49.838;8.650;2023-07-13T21:45:38;100036.56;;;18.62;55.45
43119;BME280;28729;49.838;8.650;2023-07-13T21:49:40;100032.72;;;18.58;55.33
43119;BME280;28729;49.838;8.650;2023-07-13T21:53:42;100038.59;;;18.56;55.32
43119;BME280;28729;49.838;8.650;2023-07-13T21:57:45;100038.06;;;18.54;55.49
43119;BME280;28729;49.838;8.650;2023-07-13T22:01:47;100033.34;;;18.50;56.12
43119;BME280;28729;49.838;8.650;2023-07-13T22:05:49;100037.28;;;18.49;56.36
43119;BME280;28729;49.838;8.650;2023-07-13T22:09:54;100042.63;;;18.45;57.13
43119;BME280;28729;49.838;8.650;2023-07-13T22:13:56;100039.63;;;18.41;56.88